Portada
METAR-TAF:

METAR-TAF

Aeroports :

Subic Bay, Filipines

latitud: 14-48N, longitud: 120-16E, altitud: 18 m

Observació

L'informe es va fer fa 39 minuts, a les 15:00 UTC
Vent 6 kt del Est/Nord-Est
Temperatura 29°C
Humitat 79%
Pressió 1010 hPa
Visibilitat 10 km o més
Cel ennuvolat a una alçada de 2000 ft

METAR: RPLB 221500Z 06006KT 9999 BKN020 29/25 Q1010 NOSIG RMK A2983

Hora: 23:39 (15:39 UTC)

Pronòstic

L'informe es va fer fa 4 hores i 39 minuts, a les 11:00 UTC
Pronòstic vàlid del 22 a les 12 UTC al 23 a les 12 UTC
Vent 6 kt del Est
Visibilitat 10 km o més
Escasses núvols a una alçada de 2000 ft
Núvols disperses a una alçada de 8000 ft
Temporalment
l' 22 a les 12 UTC al 22 a les 18 UTC
Vent 10 kt del Nord-Oest
Escasses núvols a una alçada de 1800 ft, Cumulonimbus.
Núvols disperses a una alçada de 2000 ft
Cel ennuvolat a una alçada de 8000 ft

TAF: RPLB 221100Z 2212/2312 08006KT 9999 FEW020 SCT080 TX37/2306Z TN27/2221Z TEMPO 2212/2218 32010KT FEW018CB SCT020 BKN080

Observacions i pronòstics meteorològics de més de 4000 aeroports (METAR i TAF).

Les estacions disponibles són els punts grocs i vermells al mapa.

Posi el ratolí al punt desitjat per veure el nom de l'estació.

Feu clic per veure les observacions i els pronòstics meteorològics.

Per canviar el mapa: feu clic els botons verds amb una creu de color negre per apropar; al botó verd amb un guió per allunyar la imatge; o en les fletxes verdes per a mapes adjacents.


METAR-TAF: